createdAt,value
2023-05-10T00:02:25.000Z,24.11
2023-05-10T00:07:26.000Z,24.79
2023-05-10T00:12:25.000Z,24.68
2023-05-10T00:17:26.000Z,25.38
2023-05-10T00:22:25.000Z,26.04
2023-05-10T00:27:26.000Z,25.56
2023-05-10T00:32:25.000Z,26.48
2023-05-10T00:37:25.000Z,25.39
2023-05-10T00:42:26.000Z,27.44
2023-05-10T00:47:25.000Z,35.91
2023-05-10T00:52:25.000Z,33.84
2023-05-10T00:57:25.000Z,33.36
2023-05-10T01:02:25.000Z,34.6
2023-05-10T01:07:25.000Z,33.26
2023-05-10T01:12:26.000Z,33.07
2023-05-10T01:17:25.000Z,33.76
2023-05-10T01:22:26.000Z,31.76
2023-05-10T01:27:26.000Z,30.67
2023-05-10T01:32:25.000Z,32.1
2023-05-10T01:37:25.000Z,33.83
2023-05-10T01:42:25.000Z,35.12
2023-05-10T01:47:26.000Z,33.25
2023-05-10T01:52:25.000Z,30.11
2023-05-10T01:57:25.000Z,28.92
2023-05-10T02:02:25.000Z,28.57
2023-05-10T02:07:26.000Z,27.32
2023-05-10T02:12:25.000Z,28.77
2023-05-10T02:17:25.000Z,29.76
2023-05-10T02:22:26.000Z,28.52
2023-05-10T02:27:26.000Z,29.16
2023-05-10T02:32:25.000Z,28.87
2023-05-10T02:37:25.000Z,29.68
2023-05-10T02:42:26.000Z,28.86
2023-05-10T02:47:25.000Z,28.58
2023-05-10T02:52:26.000Z,28.53
2023-05-10T02:57:25.000Z,28.75
2023-05-10T03:02:26.000Z,27.5
2023-05-10T03:07:25.000Z,28.48
2023-05-10T03:12:25.000Z,29.42
2023-05-10T03:17:25.000Z,29.16
2023-05-10T03:22:25.000Z,26.69
2023-05-10T03:27:25.000Z,25.86
2023-05-10T03:32:26.000Z,26.3
2023-05-10T03:37:26.000Z,25.29
2023-05-10T03:42:25.000Z,27.54
2023-05-10T03:47:25.000Z,27.47
2023-05-10T03:52:26.000Z,28.9
2023-05-10T03:57:26.000Z,29.39
2023-05-10T04:02:25.000Z,28.73
2023-05-10T04:07:25.000Z,27.29
2023-05-10T04:12:25.000Z,27.7
2023-05-10T04:17:25.000Z,26.31
2023-05-10T04:22:25.000Z,26.91
2023-05-10T04:27:25.000Z,26.53
2023-05-10T04:32:25.000Z,25.56
2023-05-10T04:37:25.000Z,24.78
2023-05-10T04:42:25.000Z,24.97
2023-05-10T04:47:25.000Z,24.02
2023-05-10T04:52:25.000Z,22.69
2023-05-10T04:57:25.000Z,23.24
2023-05-10T05:02:25.000Z,21.17
2023-05-10T05:07:25.000Z,22.42
2023-05-10T05:12:26.000Z,22.08
2023-05-10T05:17:25.000Z,21.01
2023-05-10T05:22:25.000Z,20.67
2023-05-10T05:27:25.000Z,20.12
2023-05-10T05:32:25.000Z,18.26
2023-05-10T05:37:25.000Z,16.01
2023-05-10T05:42:26.000Z,16.17
2023-05-10T05:47:25.000Z,14.9
2023-05-10T05:52:25.000Z,12.62
2023-05-10T05:57:25.000Z,11.44
2023-05-10T06:02:25.000Z,10.97
2023-05-10T06:07:25.000Z,10.67
2023-05-10T06:12:26.000Z,10.41
2023-05-10T06:17:25.000Z,9.93
2023-05-10T06:22:26.000Z,10.24
2023-05-10T06:27:26.000Z,9.82
2023-05-10T06:32:26.000Z,10.09
2023-05-10T06:37:25.000Z,9.48
2023-05-10T06:42:26.000Z,9.26
2023-05-10T06:47:26.000Z,9.02
2023-05-10T06:52:25.000Z,8.35
2023-05-10T06:57:25.000Z,8.69
2023-05-10T07:02:26.000Z,7.58
2023-05-10T07:07:26.000Z,8.44
2023-05-10T07:12:26.000Z,9.9
2023-05-10T07:17:25.000Z,8.1
2023-05-10T07:22:25.000Z,7.68
2023-05-10T07:27:25.000Z,7.52
2023-05-10T07:32:25.000Z,7.05
2023-05-10T07:37:25.000Z,7.25
2023-05-10T07:42:25.000Z,6.81
2023-05-10T07:47:25.000Z,7.37
2023-05-10T07:52:25.000Z,7.03
2023-05-10T07:57:25.000Z,6.73
2023-05-10T08:02:26.000Z,6.07
2023-05-10T08:07:25.000Z,6.48
2023-05-10T08:12:25.000Z,6.44
2023-05-10T08:17:26.000Z,6.21
2023-05-10T08:22:25.000Z,6.16
2023-05-10T08:27:26.000Z,6.07
2023-05-10T08:32:25.000Z,6.69
2023-05-10T08:37:25.000Z,6.53
2023-05-10T08:42:26.000Z,6.01
2023-05-10T08:47:25.000Z,5.92
2023-05-10T08:52:25.000Z,6.24
2023-05-10T08:57:26.000Z,6.47
2023-05-10T09:02:26.000Z,6.58
2023-05-10T09:07:25.000Z,6.29
2023-05-10T09:12:25.000Z,7.11
2023-05-10T09:17:26.000Z,6.62
2023-05-10T09:22:26.000Z,5.8
2023-05-10T09:27:26.000Z,6.11
2023-05-10T09:32:26.000Z,6.68
2023-05-10T09:37:25.000Z,6.02
2023-05-10T09:42:26.000Z,6.46
2023-05-10T09:47:26.000Z,6.54
2023-05-10T09:52:25.000Z,6.86
2023-05-10T09:57:26.000Z,6.53
2023-05-10T10:02:25.000Z,6.92
2023-05-10T10:07:25.000Z,7.27
2023-05-10T10:12:25.000Z,6.89
2023-05-10T10:17:25.000Z,7.23
2023-05-10T10:22:26.000Z,7.15
2023-05-10T10:27:25.000Z,6.49
2023-05-10T10:32:25.000Z,6.27
2023-05-10T10:37:26.000Z,6.88
2023-05-10T10:42:25.000Z,6.73
2023-05-10T10:47:25.000Z,6.79
2023-05-10T10:52:26.000Z,6.86
2023-05-10T10:57:26.000Z,6.4
2023-05-10T11:02:25.000Z,7.06
2023-05-10T11:07:25.000Z,6.71
2023-05-10T11:12:26.000Z,6.9
2023-05-10T11:17:25.000Z,7.13
2023-05-10T11:22:26.000Z,8.64
2023-05-10T11:27:25.000Z,7.08
2023-05-10T11:32:25.000Z,6.52
2023-05-10T11:37:25.000Z,6.9
2023-05-10T11:42:25.000Z,6.97
2023-05-10T11:47:25.000Z,7.74
2023-05-10T11:52:25.000Z,6.86
2023-05-10T11:57:25.000Z,6.94
2023-05-10T12:02:25.000Z,7.33
2023-05-10T12:07:26.000Z,7.1
2023-05-10T12:12:26.000Z,6.75
2023-05-10T12:17:26.000Z,6.94
2023-05-10T12:22:26.000Z,6.66
2023-05-10T12:27:25.000Z,7.22
2023-05-10T12:32:25.000Z,7.37
2023-05-10T12:37:25.000Z,10.6
2023-05-10T12:42:26.000Z,7.1
2023-05-10T12:47:26.000Z,7.01
2023-05-10T12:52:25.000Z,7.26
2023-05-10T12:57:25.000Z,8.7
2023-05-10T13:02:26.000Z,7.78
2023-05-10T13:07:26.000Z,7.78
2023-05-10T13:12:25.000Z,7.14
2023-05-10T13:17:25.000Z,7.96
2023-05-10T13:22:25.000Z,7.39
2023-05-10T13:27:25.000Z,7.46
2023-05-10T13:32:25.000Z,7.42
2023-05-10T13:37:25.000Z,8.56
2023-05-10T13:42:25.000Z,10.38
2023-05-10T13:47:25.000Z,7.03
2023-05-10T13:52:25.000Z,9.3
2023-05-10T13:57:25.000Z,7.55
2023-05-10T14:02:25.000Z,8.07
2023-05-10T14:07:26.000Z,8.05
2023-05-10T14:12:25.000Z,8.15
2023-05-10T14:17:26.000Z,8.36
2023-05-10T14:22:25.000Z,8.06
2023-05-10T14:27:25.000Z,9.05
2023-05-10T14:32:25.000Z,7.4
2023-05-10T14:37:26.000Z,7.71
2023-05-10T14:42:25.000Z,7.11
2023-05-10T14:47:26.000Z,7.49
2023-05-10T14:52:25.000Z,8
2023-05-10T14:57:25.000Z,9
2023-05-10T15:02:25.000Z,7.83
2023-05-10T15:07:25.000Z,13.72
2023-05-10T15:12:26.000Z,8.35
2023-05-10T15:17:26.000Z,7.56
2023-05-10T15:22:26.000Z,10.39
2023-05-10T15:27:26.000Z,14.47
2023-05-10T15:32:25.000Z,11.85
2023-05-10T15:37:26.000Z,10.89
2023-05-10T15:42:25.000Z,12.07
2023-05-10T15:47:25.000Z,13.51
2023-05-10T15:52:25.000Z,11.97
2023-05-10T15:57:26.000Z,9.46
2023-05-10T16:02:25.000Z,10.85
2023-05-10T16:07:25.000Z,11.74
2023-05-10T16:12:25.000Z,11.78
2023-05-10T16:17:26.000Z,11.24
2023-05-10T16:22:25.000Z,11.53
2023-05-10T16:27:25.000Z,11.64
2023-05-10T16:32:26.000Z,11.76
2023-05-10T16:37:25.000Z,12.26
2023-05-10T16:42:25.000Z,14.75
2023-05-10T16:47:26.000Z,30.56
2023-05-10T16:52:25.000Z,14.32
2023-05-10T16:57:25.000Z,17.23
2023-05-10T17:02:25.000Z,13.49
2023-05-10T17:07:26.000Z,14.37
2023-05-10T17:12:25.000Z,15.01
2023-05-10T17:17:26.000Z,21.83
2023-05-10T17:22:26.000Z,27.29
2023-05-10T17:27:26.000Z,22.67
2023-05-10T17:32:25.000Z,20.37
2023-05-10T17:37:25.000Z,18.24
2023-05-10T17:42:25.000Z,18.43
2023-05-10T17:47:26.000Z,18.63
2023-05-10T17:52:25.000Z,19.17
2023-05-10T17:57:25.000Z,18
2023-05-10T18:02:25.000Z,17.15
2023-05-10T18:07:25.000Z,16.76
2023-05-10T18:12:25.000Z,18.24
2023-05-10T18:17:25.000Z,20.65
2023-05-10T18:22:25.000Z,21.19
2023-05-10T18:27:25.000Z,19.91
2023-05-10T18:32:25.000Z,22.64
2023-05-10T18:37:25.000Z,22.56
2023-05-10T18:42:25.000Z,24.01
2023-05-10T18:47:25.000Z,25.18
2023-05-10T18:52:25.000Z,22.41
2023-05-10T18:57:25.000Z,22.25
2023-05-10T19:02:25.000Z,28.71
2023-05-10T19:07:25.000Z,31.93
2023-05-10T19:12:25.000Z,32.51
2023-05-10T19:17:26.000Z,35.5
2023-05-10T19:22:25.000Z,29.45
2023-05-10T19:27:25.000Z,29.46
2023-05-10T19:32:25.000Z,29.66
2023-05-10T19:37:26.000Z,28.08
2023-05-10T19:42:25.000Z,30.58
2023-05-10T19:47:24.000Z,27.58
2023-05-10T19:52:25.000Z,28.15
2023-05-10T19:57:25.000Z,26.28
2023-05-10T20:02:25.000Z,23.78
2023-05-10T20:07:26.000Z,24.18
2023-05-10T20:12:25.000Z,22.92
2023-05-10T20:17:26.000Z,23.63
2023-05-10T20:22:25.000Z,22.14
2023-05-10T20:27:26.000Z,21.81
2023-05-10T20:32:26.000Z,24.71
2023-05-10T20:37:25.000Z,24.64
2023-05-10T20:42:26.000Z,21.85
2023-05-10T20:47:25.000Z,19.56
2023-05-10T20:52:25.000Z,20.15
2023-05-10T20:57:25.000Z,19.3
2023-05-10T21:02:25.000Z,18.99
2023-05-10T21:07:25.000Z,19.37
2023-05-10T21:12:25.000Z,20.19
2023-05-10T21:17:26.000Z,19.01
2023-05-10T21:22:25.000Z,20.14
2023-05-10T21:27:25.000Z,20.07
2023-05-10T21:32:25.000Z,19.5
2023-05-10T21:37:26.000Z,19.51
2023-05-10T21:42:26.000Z,19.43
2023-05-10T21:47:25.000Z,20.45
2023-05-10T21:52:25.000Z,22.3
2023-05-10T21:57:26.000Z,20.82
2023-05-10T22:02:25.000Z,22.04
2023-05-10T22:07:25.000Z,20.17
2023-05-10T22:12:25.000Z,20.07
2023-05-10T22:17:25.000Z,19.35
2023-05-10T22:22:25.000Z,21.48
2023-05-10T22:27:25.000Z,21.17
2023-05-10T22:32:26.000Z,21.62
2023-05-10T22:37:26.000Z,20.91
2023-05-10T22:42:25.000Z,20.27
2023-05-10T22:47:25.000Z,20.53
2023-05-10T22:52:25.000Z,20.77
2023-05-10T22:57:25.000Z,20.4
2023-05-10T23:02:25.000Z,22.4
2023-05-10T23:07:25.000Z,25.09
2023-05-10T23:12:25.000Z,26.59
2023-05-10T23:17:26.000Z,26.5
2023-05-10T23:22:26.000Z,25.93
2023-05-10T23:27:25.000Z,25.84
2023-05-10T23:32:26.000Z,30.49
2023-05-10T23:37:25.000Z,30.92
2023-05-10T23:42:25.000Z,27.95
2023-05-10T23:47:25.000Z,27.09
2023-05-10T23:52:25.000Z,24.72
2023-05-10T23:57:25.000Z,23.03
